sensor_id;sensor_type;location;lat;lon;timestamp;temperature;humidity
12049;DHT22;6085;49.452;8.502;2022-11-20T00:01:13;3.10;99.90
12049;DHT22;6085;49.452;8.502;2022-11-20T00:05:15;3.10;99.90
12049;DHT22;6085;49.452;8.502;2022-11-20T00:09:19;3.00;99.90
12049;DHT22;6085;49.452;8.502;2022-11-20T00:13:21;3.00;99.90
12049;DHT22;6085;49.452;8.502;2022-11-20T00:17:22;3.00;99.90
12049;DHT22;6085;49.452;8.502;2022-11-20T00:21:26;3.00;99.90
12049;DHT22;6085;49.452;8.502;2022-11-20T00:25:29;3.00;99.90
12049;DHT22;6085;49.452;8.502;2022-11-20T00:29:31;3.10;99.90
12049;DHT22;6085;49.452;8.502;2022-11-20T00:33:33;3.10;99.90
12049;DHT22;6085;49.452;8.502;2022-11-20T00:37:35;3.10;99.90
12049;DHT22;6085;49.452;8.502;2022-11-20T00:41:38;3.10;99.90
12049;DHT22;6085;49.452;8.502;2022-11-20T00:45:40;3.10;99.90
12049;DHT22;6085;49.452;8.502;2022-11-20T00:49:42;3.20;99.90
12049;DHT22;6085;49.452;8.502;2022-11-20T00:53:44;3.20;99.90
12049;DHT22;6085;49.452;8.502;2022-11-20T00:57:47;3.20;99.90
12049;DHT22;6085;49.452;8.502;2022-11-20T01:01:49;3.20;99.90
12049;DHT22;6085;49.452;8.502;2022-11-20T01:05:51;3.20;99.90
12049;DHT22;6085;49.452;8.502;2022-11-20T01:09:52;3.20;99.90
12049;DHT22;6085;49.452;8.502;2022-11-20T01:13:57;3.20;99.90
12049;DHT22;6085;49.452;8.502;2022-11-20T01:17:59;3.20;99.90
12049;DHT22;6085;49.452;8.502;2022-11-20T01:22:01;3.20;99.90
12049;DHT22;6085;49.452;8.502;2022-11-20T01:26:05;3.20;99.90
12049;DHT22;6085;49.452;8.502;2022-11-20T01:30:09;3.20;99.90
12049;DHT22;6085;49.452;8.502;2022-11-20T01:34:13;3.20;99.90
12049;DHT22;6085;49.452;8.502;2022-11-20T01:38:16;3.20;99.90
12049;DHT22;6085;49.452;8.502;2022-11-20T01:42:18;3.20;99.90
12049;DHT22;6085;49.452;8.502;2022-11-20T01:46:42;3.30;99.90
12049;DHT22;6085;49.452;8.502;2022-11-20T01:50:45;3.20;99.90
12049;DHT22;6085;49.452;8.502;2022-11-20T01:54:50;3.30;99.90
12049;DHT22;6085;49.452;8.502;2022-11-20T01:58:56;3.20;99.90
12049;DHT22;6085;49.452;8.502;2022-11-20T02:03:03;3.20;99.90
12049;DHT22;6085;49.452;8.502;2022-11-20T02:07:07;3.20;99.90
12049;DHT22;6085;49.452;8.502;2022-11-20T02:11:09;3.30;99.90
12049;DHT22;6085;49.452;8.502;2022-11-20T02:15:13;3.30;99.90
12049;DHT22;6085;49.452;8.502;2022-11-20T02:19:22;3.30;99.90
12049;DHT22;6085;49.452;8.502;2022-11-20T02:23:28;3.30;99.90
12049;DHT22;6085;49.452;8.502;2022-11-20T02:27:33;3.30;99.90
12049;DHT22;6085;49.452;8.502;2022-11-20T02:31:37;3.40;99.90
12049;DHT22;6085;49.452;8.502;2022-11-20T02:35:42;3.30;99.90
12049;DHT22;6085;49.452;8.502;2022-11-20T02:39:46;3.30;99.90
12049;DHT22;6085;49.452;8.502;2022-11-20T02:43:50;3.40;99.90
12049;DHT22;6085;49.452;8.502;2022-11-20T02:47:52;3.40;99.90
12049;DHT22;6085;49.452;8.502;2022-11-20T02:51:54;3.40;99.90
12049;DHT22;6085;49.452;8.502;2022-11-20T02:55:56;3.40;99.90
12049;DHT22;6085;49.452;8.502;2022-11-20T03:00:00;3.40;99.90
12049;DHT22;6085;49.452;8.502;2022-11-20T03:04:02;3.50;99.90
12049;DHT22;6085;49.452;8.502;2022-11-20T03:08:04;3.50;99.90
12049;DHT22;6085;49.452;8.502;2022-11-20T03:12:06;3.50;99.90
12049;DHT22;6085;49.452;8.502;2022-11-20T03:16:11;3.50;99.90
12049;DHT22;6085;49.452;8.502;2022-11-20T03:20:14;3.50;99.90
12049;DHT22;6085;49.452;8.502;2022-11-20T03:24:15;3.50;99.90
12049;DHT22;6085;49.452;8.502;2022-11-20T03:28:17;3.50;99.90
12049;DHT22;6085;49.452;8.502;2022-11-20T03:32:20;3.50;99.90
12049;DHT22;6085;49.452;8.502;2022-11-20T03:36:22;3.50;99.90
12049;DHT22;6085;49.452;8.502;2022-11-20T03:40:24;3.50;99.90
12049;DHT22;6085;49.452;8.502;2022-11-20T03:44:26;3.50;99.90
12049;DHT22;6085;49.452;8.502;2022-11-20T03:48:30;3.50;99.90
12049;DHT22;6085;49.452;8.502;2022-11-20T03:52:31;3.50;99.90
12049;DHT22;6085;49.452;8.502;2022-11-20T03:56:35;3.50;99.90
12049;DHT22;6085;49.452;8.502;2022-11-20T04:00:37;3.50;99.90
12049;DHT22;6085;49.452;8.502;2022-11-20T04:04:40;3.50;99.90
12049;DHT22;6085;49.452;8.502;2022-11-20T04:08:42;3.60;99.90
12049;DHT22;6085;49.452;8.502;2022-11-20T04:12:44;3.60;99.90
12049;DHT22;6085;49.452;8.502;2022-11-20T04:16:46;3.60;99.90
12049;DHT22;6085;49.452;8.502;2022-11-20T04:20:49;3.60;99.90
12049;DHT22;6085;49.452;8.502;2022-11-20T04:24:51;3.60;99.90
12049;DHT22;6085;49.452;8.502;2022-11-20T04:28:53;3.70;99.90
12049;DHT22;6085;49.452;8.502;2022-11-20T04:32:54;3.70;99.90
12049;DHT22;6085;49.452;8.502;2022-11-20T04:36:57;3.70;99.90
12049;DHT22;6085;49.452;8.502;2022-11-20T04:41:00;3.70;99.90
12049;DHT22;6085;49.452;8.502;2022-11-20T04:45:02;3.80;99.90
12049;DHT22;6085;49.452;8.502;2022-11-20T04:49:05;3.70;99.90
12049;DHT22;6085;49.452;8.502;2022-11-20T04:53:08;3.70;99.90
12049;DHT22;6085;49.452;8.502;2022-11-20T04:57:12;3.70;99.90
12049;DHT22;6085;49.452;8.502;2022-11-20T05:01:16;3.70;99.90
12049;DHT22;6085;49.452;8.502;2022-11-20T05:05:18;3.80;99.90
12049;DHT22;6085;49.452;8.502;2022-11-20T05:09:21;3.80;99.90
12049;DHT22;6085;49.452;8.502;2022-11-20T05:13:23;3.90;99.90
12049;DHT22;6085;49.452;8.502;2022-11-20T05:17:24;3.90;99.90
12049;DHT22;6085;49.452;8.502;2022-11-20T05:21:26;3.80;99.90
12049;DHT22;6085;49.452;8.502;2022-11-20T05:25:30;3.80;99.90
12049;DHT22;6085;49.452;8.502;2022-11-20T05:29:31;3.80;99.90
12049;DHT22;6085;49.452;8.502;2022-11-20T05:33:34;3.80;99.90
12049;DHT22;6085;49.452;8.502;2022-11-20T05:37:36;3.80;99.90
12049;DHT22;6085;49.452;8.502;2022-11-20T05:41:39;3.80;99.90
12049;DHT22;6085;49.452;8.502;2022-11-20T05:45:41;3.90;99.90
12049;DHT22;6085;49.452;8.502;2022-11-20T05:49:43;3.90;99.90
12049;DHT22;6085;49.452;8.502;2022-11-20T05:53:45;4.00;99.90
12049;DHT22;6085;49.452;8.502;2022-11-20T05:57:48;4.00;99.90
12049;DHT22;6085;49.452;8.502;2022-11-20T06:01:50;3.90;99.90
12049;DHT22;6085;49.452;8.502;2022-11-20T06:05:52;4.00;99.90
12049;DHT22;6085;49.452;8.502;2022-11-20T06:09:54;4.00;99.90
12049;DHT22;6085;49.452;8.502;2022-11-20T06:13:57;4.00;99.90
12049;DHT22;6085;49.452;8.502;2022-11-20T06:17:59;4.00;99.90
12049;DHT22;6085;49.452;8.502;2022-11-20T06:22:01;4.10;99.90
12049;DHT22;6085;49.452;8.502;2022-11-20T06:26:04;4.10;99.90
12049;DHT22;6085;49.452;8.502;2022-11-20T06:30:09;4.10;99.90
12049;DHT22;6085;49.452;8.502;2022-11-20T06:34:11;4.20;99.90
12049;DHT22;6085;49.452;8.502;2022-11-20T06:38:13;4.30;99.90
12049;DHT22;6085;49.452;8.502;2022-11-20T06:42:15;4.30;99.90
12049;DHT22;6085;49.452;8.502;2022-11-20T06:46:19;4.30;99.90
12049;DHT22;6085;49.452;8.502;2022-11-20T06:50:21;4.30;99.90
12049;DHT22;6085;49.452;8.502;2022-11-20T06:54:22;4.40;99.90
12049;DHT22;6085;49.452;8.502;2022-11-20T06:58:27;4.40;99.90
12049;DHT22;6085;49.452;8.502;2022-11-20T07:02:30;4.40;99.90
12049;DHT22;6085;49.452;8.502;2022-11-20T07:06:32;4.50;99.90
12049;DHT22;6085;49.452;8.502;2022-11-20T07:10:34;4.50;99.90
12049;DHT22;6085;49.452;8.502;2022-11-20T07:14:36;4.50;99.90
12049;DHT22;6085;49.452;8.502;2022-11-20T07:18:39;4.50;99.90
12049;DHT22;6085;49.452;8.502;2022-11-20T07:22:41;4.50;99.90
12049;DHT22;6085;49.452;8.502;2022-11-20T07:26:46;4.50;99.90
12049;DHT22;6085;49.452;8.502;2022-11-20T07:30:51;4.50;99.90
12049;DHT22;6085;49.452;8.502;2022-11-20T07:34:54;4.60;99.90
12049;DHT22;6085;49.452;8.502;2022-11-20T07:38:56;4.70;99.90
12049;DHT22;6085;49.452;8.502;2022-11-20T07:42:58;4.70;99.90
12049;DHT22;6085;49.452;8.502;2022-11-20T07:47:00;4.70;99.90
12049;DHT22;6085;49.452;8.502;2022-11-20T07:51:03;4.70;99.90
12049;DHT22;6085;49.452;8.502;2022-11-20T07:55:06;4.80;99.90
12049;DHT22;6085;49.452;8.502;2022-11-20T07:59:08;4.90;99.90
12049;DHT22;6085;49.452;8.502;2022-11-20T08:03:13;4.90;99.90
12049;DHT22;6085;49.452;8.502;2022-11-20T08:07:16;4.90;99.90
12049;DHT22;6085;49.452;8.502;2022-11-20T08:11:18;5.00;99.90
12049;DHT22;6085;49.452;8.502;2022-11-20T08:15:39;5.10;99.90
12049;DHT22;6085;49.452;8.502;2022-11-20T08:19:41;5.30;99.90
12049;DHT22;6085;49.452;8.502;2022-11-20T08:23:44;5.60;99.90
12049;DHT22;6085;49.452;8.502;2022-11-20T08:27:46;5.80;99.90
12049;DHT22;6085;49.452;8.502;2022-11-20T08:31:47;5.90;99.90
12049;DHT22;6085;49.452;8.502;2022-11-20T08:35:49;5.90;99.90
12049;DHT22;6085;49.452;8.502;2022-11-20T08:39:52;5.90;99.90
12049;DHT22;6085;49.452;8.502;2022-11-20T08:43:59;5.70;99.90
12049;DHT22;6085;49.452;8.502;2022-11-20T08:48:01;5.70;99.90
12049;DHT22;6085;49.452;8.502;2022-11-20T08:52:04;5.70;99.90
12049;DHT22;6085;49.452;8.502;2022-11-20T08:56:07;5.70;99.90
12049;DHT22;6085;49.452;8.502;2022-11-20T09:00:11;5.70;99.90
12049;DHT22;6085;49.452;8.502;2022-11-20T09:04:12;5.60;99.90
12049;DHT22;6085;49.452;8.502;2022-11-20T09:08:14;5.60;99.90
12049;DHT22;6085;49.452;8.502;2022-11-20T09:12:18;5.60;99.90
12049;DHT22;6085;49.452;8.502;2022-11-20T09:16:19;5.60;99.90
12049;DHT22;6085;49.452;8.502;2022-11-20T09:20:21;5.60;99.90
12049;DHT22;6085;49.452;8.502;2022-11-20T09:24:23;5.60;99.90
12049;DHT22;6085;49.452;8.502;2022-11-20T09:28:27;5.70;99.90
12049;DHT22;6085;49.452;8.502;2022-11-20T09:32:28;5.80;99.90
12049;DHT22;6085;49.452;8.502;2022-11-20T09:36:30;5.90;99.90
12049;DHT22;6085;49.452;8.502;2022-11-20T09:40:34;5.90;99.90
12049;DHT22;6085;49.452;8.502;2022-11-20T09:44:50;5.90;99.90
12049;DHT22;6085;49.452;8.502;2022-11-20T09:49:13;6.00;99.90
12049;DHT22;6085;49.452;8.502;2022-11-20T09:53:23;6.10;99.90
12049;DHT22;6085;49.452;8.502;2022-11-20T09:57:33;6.20;99.90
12049;DHT22;6085;49.452;8.502;2022-11-20T10:01:38;6.30;99.90
12049;DHT22;6085;49.452;8.502;2022-11-20T10:05:43;6.40;99.90
12049;DHT22;6085;49.452;8.502;2022-11-20T10:09:51;6.50;99.90
12049;DHT22;6085;49.452;8.502;2022-11-20T10:14:01;6.50;99.90
12049;DHT22;6085;49.452;8.502;2022-11-20T10:18:18;6.50;99.90
12049;DHT22;6085;49.452;8.502;2022-11-20T10:22:35;6.50;99.90
12049;DHT22;6085;49.452;8.502;2022-11-20T10:26:44;6.50;99.90
12049;DHT22;6085;49.452;8.502;2022-11-20T10:30:59;6.50;99.90
12049;DHT22;6085;49.452;8.502;2022-11-20T10:35:06;6.60;99.90
12049;DHT22;6085;49.452;8.502;2022-11-20T10:39:17;6.70;99.90
12049;DHT22;6085;49.452;8.502;2022-11-20T10:43:24;6.80;99.90
12049;DHT22;6085;49.452;8.502;2022-11-20T10:47:30;6.80;99.90
12049;DHT22;6085;49.452;8.502;2022-11-20T10:51:37;6.70;99.90
12049;DHT22;6085;49.452;8.502;2022-11-20T10:55:46;6.60;99.90
12049;DHT22;6085;49.452;8.502;2022-11-20T11:00:03;6.40;99.90
12049;DHT22;6085;49.452;8.502;2022-11-20T11:04:18;6.20;99.90
12049;DHT22;6085;49.452;8.502;2022-11-20T11:08:29;6.10;99.90
12049;DHT22;6085;49.452;8.502;2022-11-20T11:12:34;6.10;99.90
12049;DHT22;6085;49.452;8.502;2022-11-20T11:16:40;6.30;99.90
12049;DHT22;6085;49.452;8.502;2022-11-20T11:20:50;6.70;99.90
12049;DHT22;6085;49.452;8.502;2022-11-20T11:24:54;7.30;99.90
12049;DHT22;6085;49.452;8.502;2022-11-20T11:28:56;8.10;99.90
12049;DHT22;6085;49.452;8.502;2022-11-20T11:33:08;8.70;99.90
12049;DHT22;6085;49.452;8.502;2022-11-20T11:37:15;8.30;99.90
12049;DHT22;6085;49.452;8.502;2022-11-20T11:41:22;7.90;99.90
12049;DHT22;6085;49.452;8.502;2022-11-20T11:45:25;8.70;99.90
12049;DHT22;6085;49.452;8.502;2022-11-20T11:49:27;9.40;99.90
12049;DHT22;6085;49.452;8.502;2022-11-20T11:53:30;9.60;99.90
12049;DHT22;6085;49.452;8.502;2022-11-20T11:57:41;9.90;99.90
12049;DHT22;6085;49.452;8.502;2022-11-20T12:01:50;9.70;99.90
12049;DHT22;6085;49.452;8.502;2022-11-20T12:05:57;9.50;99.90
12049;DHT22;6085;49.452;8.502;2022-11-20T12:10:00;9.80;99.90
12049;DHT22;6085;49.452;8.502;2022-11-20T12:14:11;9.90;99.90
12049;DHT22;6085;49.452;8.502;2022-11-20T12:18:17;10.00;99.90
12049;DHT22;6085;49.452;8.502;2022-11-20T12:22:27;10.30;99.90
12049;DHT22;6085;49.452;8.502;2022-11-20T12:26:50;10.60;99.90
12049;DHT22;6085;49.452;8.502;2022-11-20T12:31:08;10.60;99.90
12049;DHT22;6085;49.452;8.502;2022-11-20T12:35:26;10.50;99.90
12049;DHT22;6085;49.452;8.502;2022-11-20T12:39:34;10.30;99.90
12049;DHT22;6085;49.452;8.502;2022-11-20T12:43:42;10.10;99.90
12049;DHT22;6085;49.452;8.502;2022-11-20T12:52:47;9.80;99.90
12049;DHT22;6085;49.452;8.502;2022-11-20T12:56:53;9.50;99.90
12049;DHT22;6085;49.452;8.502;2022-11-20T13:01:03;9.30;99.90
12049;DHT22;6085;49.452;8.502;2022-11-20T13:05:19;9.10;99.90
12049;DHT22;6085;49.452;8.502;2022-11-20T13:09:23;9.00;99.90
12049;DHT22;6085;49.452;8.502;2022-11-20T13:13:33;9.00;99.90
12049;DHT22;6085;49.452;8.502;2022-11-20T13:17:38;9.00;99.90
12049;DHT22;6085;49.452;8.502;2022-11-20T13:21:44;9.00;99.90
12049;DHT22;6085;49.452;8.502;2022-11-20T13:25:46;9.00;99.90
12049;DHT22;6085;49.452;8.502;2022-11-20T13:30:02;9.10;99.90
12049;DHT22;6085;49.452;8.502;2022-11-20T13:34:06;9.30;99.90
12049;DHT22;6085;49.452;8.502;2022-11-20T13:38:11;9.40;99.90
12049;DHT22;6085;49.452;8.502;2022-11-20T13:42:23;9.40;99.90
12049;DHT22;6085;49.452;8.502;2022-11-20T13:46:39;9.50;99.90
12049;DHT22;6085;49.452;8.502;2022-11-20T13:50:54;9.60;99.90
12049;DHT22;6085;49.452;8.502;2022-11-20T13:55:15;9.60;99.90
12049;DHT22;6085;49.452;8.502;2022-11-20T13:59:40;9.60;99.90
12049;DHT22;6085;49.452;8.502;2022-11-20T14:03:42;9.70;99.90
12049;DHT22;6085;49.452;8.502;2022-11-20T14:07:44;10.60;99.90
12049;DHT22;6085;49.452;8.502;2022-11-20T14:11:47;11.20;99.90
12049;DHT22;6085;49.452;8.502;2022-11-20T14:15:56;11.40;99.90
12049;DHT22;6085;49.452;8.502;2022-11-20T14:20:00;11.20;99.90
12049;DHT22;6085;49.452;8.502;2022-11-20T14:24:04;11.10;99.90
12049;DHT22;6085;49.452;8.502;2022-11-20T14:28:17;10.50;99.90
12049;DHT22;6085;49.452;8.502;2022-11-20T14:32:27;9.90;99.90
12049;DHT22;6085;49.452;8.502;2022-11-20T14:36:29;9.30;99.90
12049;DHT22;6085;49.452;8.502;2022-11-20T14:40:33;8.90;99.90
12049;DHT22;6085;49.452;8.502;2022-11-20T14:44:37;8.60;99.90
12049;DHT22;6085;49.452;8.502;2022-11-20T14:48:43;8.40;99.90
12049;DHT22;6085;49.452;8.502;2022-11-20T14:52:51;8.20;99.90
12049;DHT22;6085;49.452;8.502;2022-11-20T14:56:56;8.10;99.90
12049;DHT22;6085;49.452;8.502;2022-11-20T15:01:01;8.20;99.90
12049;DHT22;6085;49.452;8.502;2022-11-20T15:05:04;8.20;99.90
12049;DHT22;6085;49.452;8.502;2022-11-20T15:09:13;8.10;99.90
12049;DHT22;6085;49.452;8.502;2022-11-20T15:13:19;7.90;99.90
12049;DHT22;6085;49.452;8.502;2022-11-20T15:17:26;7.70;99.90
12049;DHT22;6085;49.452;8.502;2022-11-20T15:21:27;7.70;99.90
12049;DHT22;6085;49.452;8.502;2022-11-20T15:25:29;7.60;99.90
12049;DHT22;6085;49.452;8.502;2022-11-20T15:29:31;7.50;99.90
12049;DHT22;6085;49.452;8.502;2022-11-20T15:33:34;7.50;99.90
12049;DHT22;6085;49.452;8.502;2022-11-20T15:37:37;7.60;99.90
12049;DHT22;6085;49.452;8.502;2022-11-20T15:41:39;7.50;99.90
12049;DHT22;6085;49.452;8.502;2022-11-20T15:45:43;7.50;99.90
12049;DHT22;6085;49.452;8.502;2022-11-20T15:49:47;7.50;99.90
12049;DHT22;6085;49.452;8.502;2022-11-20T15:53:48;7.50;99.90
12049;DHT22;6085;49.452;8.502;2022-11-20T15:57:50;7.50;99.90
12049;DHT22;6085;49.452;8.502;2022-11-20T16:01:52;7.40;99.90
12049;DHT22;6085;49.452;8.502;2022-11-20T16:05:55;7.40;99.90
12049;DHT22;6085;49.452;8.502;2022-11-20T16:09:57;7.50;99.90
12049;DHT22;6085;49.452;8.502;2022-11-20T16:13:59;7.50;99.90
12049;DHT22;6085;49.452;8.502;2022-11-20T16:18:20;7.50;99.90
12049;DHT22;6085;49.452;8.502;2022-11-20T16:22:23;7.50;99.90
12049;DHT22;6085;49.452;8.502;2022-11-20T16:26:25;7.40;99.90
12049;DHT22;6085;49.452;8.502;2022-11-20T16:30:27;7.40;99.90
12049;DHT22;6085;49.452;8.502;2022-11-20T16:34:29;7.40;99.90
12049;DHT22;6085;49.452;8.502;2022-11-20T16:38:34;7.50;99.90
12049;DHT22;6085;49.452;8.502;2022-11-20T16:42:36;7.50;99.90
12049;DHT22;6085;49.452;8.502;2022-11-20T16:46:38;7.50;99.90
12049;DHT22;6085;49.452;8.502;2022-11-20T16:50:48;7.50;99.90
12049;DHT22;6085;49.452;8.502;2022-11-20T16:54:52;7.60;99.90
12049;DHT22;6085;49.452;8.502;2022-11-20T16:58:57;7.60;99.90
12049;DHT22;6085;49.452;8.502;2022-11-20T17:02:59;7.60;99.90
12049;DHT22;6085;49.452;8.502;2022-11-20T17:07:01;7.60;99.90
12049;DHT22;6085;49.452;8.502;2022-11-20T17:11:06;7.60;99.90
12049;DHT22;6085;49.452;8.502;2022-11-20T17:15:08;7.50;99.90
12049;DHT22;6085;49.452;8.502;2022-11-20T17:19:10;7.50;99.90
12049;DHT22;6085;49.452;8.502;2022-11-20T17:23:12;7.40;99.90
12049;DHT22;6085;49.452;8.502;2022-11-20T17:27:15;7.30;99.90
12049;DHT22;6085;49.452;8.502;2022-11-20T17:31:17;7.30;99.90
12049;DHT22;6085;49.452;8.502;2022-11-20T17:35:19;7.30;99.90
12049;DHT22;6085;49.452;8.502;2022-11-20T17:39:21;7.30;99.90
12049;DHT22;6085;49.452;8.502;2022-11-20T17:43:24;7.40;99.90
12049;DHT22;6085;49.452;8.502;2022-11-20T17:47:26;7.40;99.90
12049;DHT22;6085;49.452;8.502;2022-11-20T17:51:29;7.50;99.90
12049;DHT22;6085;49.452;8.502;2022-11-20T17:55:31;7.50;99.90
12049;DHT22;6085;49.452;8.502;2022-11-20T17:59:54;7.50;99.90
12049;DHT22;6085;49.452;8.502;2022-11-20T18:03:57;7.50;99.90
12049;DHT22;6085;49.452;8.502;2022-11-20T18:07:58;7.60;99.90
12049;DHT22;6085;49.452;8.502;2022-11-20T18:12:00;7.60;99.90
12049;DHT22;6085;49.452;8.502;2022-11-20T18:16:06;7.60;99.90
12049;DHT22;6085;49.452;8.502;2022-11-20T18:20:09;7.60;99.90
12049;DHT22;6085;49.452;8.502;2022-11-20T18:24:11;7.60;99.90
12049;DHT22;6085;49.452;8.502;2022-11-20T18:28:13;7.60;99.90
12049;DHT22;6085;49.452;8.502;2022-11-20T18:32:16;7.50;99.90
12049;DHT22;6085;49.452;8.502;2022-11-20T18:36:20;7.50;99.90
12049;DHT22;6085;49.452;8.502;2022-11-20T18:40:22;7.30;99.90
12049;DHT22;6085;49.452;8.502;2022-11-20T18:44:25;7.10;99.90
12049;DHT22;6085;49.452;8.502;2022-11-20T18:48:46;6.90;99.90
12049;DHT22;6085;49.452;8.502;2022-11-20T18:52:48;6.70;99.90
12049;DHT22;6085;49.452;8.502;2022-11-20T18:56:50;6.60;99.90
12049;DHT22;6085;49.452;8.502;2022-11-20T19:00:52;6.50;99.90
12049;DHT22;6085;49.452;8.502;2022-11-20T19:04:55;6.30;99.90
12049;DHT22;6085;49.452;8.502;2022-11-20T19:08:57;6.30;99.90
12049;DHT22;6085;49.452;8.502;2022-11-20T19:12:59;6.20;99.90
12049;DHT22;6085;49.452;8.502;2022-11-20T19:17:01;6.20;99.90
12049;DHT22;6085;49.452;8.502;2022-11-20T19:21:07;6.30;99.90
12049;DHT22;6085;49.452;8.502;2022-11-20T19:25:09;6.20;99.90
12049;DHT22;6085;49.452;8.502;2022-11-20T19:29:12;6.20;99.90
12049;DHT22;6085;49.452;8.502;2022-11-20T19:33:15;6.20;99.90
12049;DHT22;6085;49.452;8.502;2022-11-20T19:37:18;6.20;99.90
12049;DHT22;6085;49.452;8.502;2022-11-20T19:41:22;6.30;99.90
12049;DHT22;6085;49.452;8.502;2022-11-20T19:45:28;6.30;99.90
12049;DHT22;6085;49.452;8.502;2022-11-20T19:49:30;6.30;99.90
12049;DHT22;6085;49.452;8.502;2022-11-20T19:53:33;6.30;99.90
12049;DHT22;6085;49.452;8.502;2022-11-20T19:57:35;6.30;99.90
12049;DHT22;6085;49.452;8.502;2022-11-20T20:01:37;6.30;99.90
12049;DHT22;6085;49.452;8.502;2022-11-20T20:05:39;6.30;99.90
12049;DHT22;6085;49.452;8.502;2022-11-20T20:09:42;6.30;99.90
12049;DHT22;6085;49.452;8.502;2022-11-20T20:13:45;6.30;99.90
12049;DHT22;6085;49.452;8.502;2022-11-20T20:17:46;6.20;99.90
12049;DHT22;6085;49.452;8.502;2022-11-20T20:21:48;6.20;99.90
12049;DHT22;6085;49.452;8.502;2022-11-20T20:25:51;6.20;99.90
12049;DHT22;6085;49.452;8.502;2022-11-20T20:29:53;6.20;99.90
12049;DHT22;6085;49.452;8.502;2022-11-20T20:33:55;6.20;99.90
12049;DHT22;6085;49.452;8.502;2022-11-20T20:37:57;6.20;99.90
12049;DHT22;6085;49.452;8.502;2022-11-20T20:42:00;6.20;99.90
12049;DHT22;6085;49.452;8.502;2022-11-20T20:46:02;6.20;99.90
12049;DHT22;6085;49.452;8.502;2022-11-20T20:50:06;6.00;99.90
12049;DHT22;6085;49.452;8.502;2022-11-20T20:54:08;5.80;99.90
12049;DHT22;6085;49.452;8.502;2022-11-20T20:58:12;5.70;99.90
12049;DHT22;6085;49.452;8.502;2022-11-20T21:02:13;5.50;99.90
12049;DHT22;6085;49.452;8.502;2022-11-20T21:06:15;5.50;99.90
12049;DHT22;6085;49.452;8.502;2022-11-20T21:10:17;5.40;99.90
12049;DHT22;6085;49.452;8.502;2022-11-20T21:14:20;5.40;99.90
12049;DHT22;6085;49.452;8.502;2022-11-20T21:18:23;5.50;99.90
12049;DHT22;6085;49.452;8.502;2022-11-20T21:22:25;5.50;99.90
12049;DHT22;6085;49.452;8.502;2022-11-20T21:26:29;5.50;99.90
12049;DHT22;6085;49.452;8.502;2022-11-20T21:30:34;5.40;99.90
12049;DHT22;6085;49.452;8.502;2022-11-20T21:34:36;5.30;99.90
12049;DHT22;6085;49.452;8.502;2022-11-20T21:38:38;5.30;99.90
12049;DHT22;6085;49.452;8.502;2022-11-20T21:42:40;5.30;99.90
12049;DHT22;6085;49.452;8.502;2022-11-20T21:46:44;5.30;99.90
12049;DHT22;6085;49.452;8.502;2022-11-20T21:50:48;5.20;99.90
12049;DHT22;6085;49.452;8.502;2022-11-20T21:54:50;5.10;99.90
12049;DHT22;6085;49.452;8.502;2022-11-20T21:58:53;5.00;99.90
12049;DHT22;6085;49.452;8.502;2022-11-20T22:02:56;5.00;99.90
12049;DHT22;6085;49.452;8.502;2022-11-20T22:06:58;5.00;99.90
12049;DHT22;6085;49.452;8.502;2022-11-20T22:11:01;4.90;99.90
12049;DHT22;6085;49.452;8.502;2022-11-20T22:15:04;5.00;99.90
12049;DHT22;6085;49.452;8.502;2022-11-20T22:19:07;5.20;99.90
12049;DHT22;6085;49.452;8.502;2022-11-20T22:23:09;5.30;99.90
12049;DHT22;6085;49.452;8.502;2022-11-20T22:27:11;5.40;99.90
12049;DHT22;6085;49.452;8.502;2022-11-20T22:31:13;5.50;99.90
12049;DHT22;6085;49.452;8.502;2022-11-20T22:35:17;5.50;99.90
12049;DHT22;6085;49.452;8.502;2022-11-20T22:39:19;5.60;99.90
12049;DHT22;6085;49.452;8.502;2022-11-20T22:43:22;5.70;99.90
12049;DHT22;6085;49.452;8.502;2022-11-20T22:47:24;5.70;99.90
12049;DHT22;6085;49.452;8.502;2022-11-20T22:51:28;5.80;99.90
12049;DHT22;6085;49.452;8.502;2022-11-20T22:55:32;5.90;99.90
12049;DHT22;6085;49.452;8.502;2022-11-20T22:59:34;6.00;99.90
12049;DHT22;6085;49.452;8.502;2022-11-20T23:03:37;6.10;99.90
12049;DHT22;6085;49.452;8.502;2022-11-20T23:07:40;6.20;99.90
12049;DHT22;6085;49.452;8.502;2022-11-20T23:11:43;6.30;99.90
12049;DHT22;6085;49.452;8.502;2022-11-20T23:15:45;6.30;99.90
12049;DHT22;6085;49.452;8.502;2022-11-20T23:19:46;6.40;99.90
12049;DHT22;6085;49.452;8.502;2022-11-20T23:23:51;6.40;99.90
12049;DHT22;6085;49.452;8.502;2022-11-20T23:27:54;6.40;99.90
12049;DHT22;6085;49.452;8.502;2022-11-20T23:31:55;6.40;99.90
12049;DHT22;6085;49.452;8.502;2022-11-20T23:35:57;6.50;99.90
12049;DHT22;6085;49.452;8.502;2022-11-20T23:40:00;6.60;99.90
12049;DHT22;6085;49.452;8.502;2022-11-20T23:44:03;6.60;99.90
12049;DHT22;6085;49.452;8.502;2022-11-20T23:48:05;6.70;99.90
12049;DHT22;6085;49.452;8.502;2022-11-20T23:52:07;6.80;99.90
12049;DHT22;6085;49.452;8.502;2022-11-20T23:56:11;6.70;99.90
